Time;durP1;ratioP1;P1;durP2;ratioP2;P2;SDS_P1;SDS_P2;PMS_P1;PMS_P2;Temp;Humidity;BMP_temperature;BMP_pressure;BME280_temperature;BME280_humidity;BME280_pressure;Samples;Min_cycle;Max_cycle;Signal;HPM_P1;HPM_P2
2022/09/26 00:01:56;;;;;;;51.15;30.58;;;13.60;99.90;;;;;;5090596;28;20032;-56
2022/09/26 00:04:26;;;;;;;50.08;28.25;;;13.60;99.90;;;;;;5090936;28;20107;-56
2022/09/26 00:06:54;;;;;;;47.85;27.13;;;13.60;99.90;;;;;;5090967;28;20103;-56
2022/09/26 00:09:21;;;;;;;48.58;26.98;;;13.60;99.90;;;;;;5090840;28;20428;-56
2022/09/26 00:11:48;;;;;;;46.60;26.55;;;13.70;99.90;;;;;;5090716;28;20055;-56
2022/09/26 00:14:23;;;;;;;43.72;24.80;;;13.70;99.90;;;;;;5077029;28;20119;-56
2022/09/26 00:16:49;;;;;;;43.22;25.25;;;13.80;99.90;;;;;;5077346;28;20371;-55
2022/09/26 00:19:16;;;;;;;41.97;24.80;;;13.70;99.90;;;;;;5077262;28;20115;-56
2022/09/26 00:21:42;;;;;;;42.45;23.45;;;13.70;99.90;;;;;;5076828;28;20497;-56
2022/09/26 00:24:08;;;;;;;40.05;22.80;;;13.70;99.90;;;;;;5076963;28;20084;-56
2022/09/26 00:26:35;;;;;;;39.10;22.38;;;13.80;99.90;;;;;;5077159;28;20108;-55
2022/09/26 00:29:06;;;;;;;36.00;21.60;;;13.70;99.90;;;;;;5075777;28;20377;-56
2022/09/26 00:31:35;;;;;;;38.90;22.70;;;13.80;99.90;;;;;;5077005;28;20032;-56
2022/09/26 00:34:02;;;;;;;37.95;21.33;;;13.80;99.90;;;;;;5076985;28;20020;-56
2022/09/26 00:36:28;;;;;;;32.28;20.63;;;13.60;99.90;;;;;;5076769;28;20477;-56
2022/09/26 00:38:54;;;;;;;34.10;19.80;;;13.60;99.90;;;;;;5075591;28;20056;-56
2022/09/26 00:41:21;;;;;;;34.40;20.42;;;13.50;99.90;;;;;;5076838;28;20032;-55
2022/09/26 00:43:51;;;;;;;39.38;21.40;;;13.60;99.90;;;;;;5076918;28;20039;-56
2022/09/26 00:46:43;;;;;;;33.10;20.90;;;13.60;99.90;;;;;;5076824;28;20461;-56
2022/09/26 00:49:30;;;;;;;35.38;20.17;;;13.60;99.90;;;;;;5076698;28;20039;-56
2022/09/26 00:52:01;;;;;;;32.92;20.38;;;13.80;99.90;;;;;;5076643;28;20098;-55
2022/09/26 00:54:29;;;;;;;35.03;20.85;;;13.70;99.90;;;;;;5075289;28;20039;-55
2022/09/26 00:57:02;;;;;;;38.63;21.40;;;13.70;99.90;;;;;;5076821;28;20028;-55
2022/09/26 00:59:36;;;;;;;37.03;20.83;;;13.80;99.90;;;;;;5076549;28;20119;-55
2022/09/26 01:02:03;;;;;;;39.33;22.45;;;13.90;99.90;;;;;;5076384;28;20030;-56
2022/09/26 01:04:33;;;;;;;36.65;21.05;;;13.80;99.90;;;;;;5076343;28;20032;-55
2022/09/26 01:07:05;;;;;;;39.22;22.35;;;13.80;99.90;;;;;;5076402;28;20036;-56
2022/09/26 01:09:31;;;;;;;42.10;23.13;;;13.90;99.90;;;;;;5076272;28;20115;-56
2022/09/26 01:12:00;;;;;;;37.75;21.10;;;13.90;99.90;;;;;;5076090;28;20052;-56
2022/09/26 01:14:26;;;;;;;39.92;20.88;;;13.80;99.90;;;;;;5076422;28;20085;-56
2022/09/26 01:16:53;;;;;;;31.13;18.35;;;13.90;99.90;;;;;;5074908;28;20492;-56
2022/09/26 01:19:37;;;;;;;38.03;20.35;;;13.80;99.90;;;;;;5076029;28;20063;-56
2022/09/26 01:22:31;;;;;;;33.90;19.13;;;13.70;99.90;;;;;;5074601;28;20033;-56
2022/09/26 01:25:15;;;;;;;41.25;22.52;;;13.80;99.90;;;;;;5074994;28;20036;-55
2022/09/26 01:28:12;;;;;;;39.25;21.67;;;13.80;99.90;;;;;;5074469;28;20029;-56
2022/09/26 01:30:53;;;;;;;65.70;31.48;;;13.80;99.90;;;;;;5074427;28;20470;-56
2022/09/26 01:34:06;;;;;;;54.10;26.88;;;13.80;99.90;;;;;;5075846;28;20043;-56
2022/09/26 01:36:50;;;;;;;42.83;21.73;;;13.80;99.90;;;;;;5070678;28;20040;-55
2022/09/26 01:39:30;;;;;;;36.50;20.50;;;13.90;99.90;;;;;;5075669;28;20100;-56
2022/09/26 01:42:41;;;;;;;37.80;19.15;;;13.90;99.90;;;;;;5074212;28;20032;-55
2022/09/26 01:45:18;;;;;;;32.80;18.13;;;13.90;99.90;;;;;;5074134;28;20034;-56
2022/09/26 01:48:02;;;;;;;27.05;17.65;;;13.90;99.90;;;;;;5074224;28;20028;-56
2022/09/26 01:50:41;;;;;;;28.98;16.67;;;13.90;99.90;;;;;;5074084;28;20055;-56
2022/09/26 01:53:16;;;;;;;28.05;20.08;;;13.90;99.90;;;;;;5075407;28;20058;-56
2022/09/26 01:55:53;;;;;;;28.60;18.08;;;13.90;99.90;;;;;;5074056;28;20036;-56
2022/09/26 01:58:32;;;;;;;30.27;16.10;;;13.80;99.90;;;;;;5075166;28;20099;-56
2022/09/26 02:01:02;;;;;;;22.70;15.23;;;13.90;99.90;;;;;;5073760;28;20036;-56
2022/09/26 02:03:34;;;;;;;21.90;12.13;;;14.00;99.90;;;;;;5075160;28;20029;-55
2022/09/26 02:06:29;;;;;;;24.27;13.77;;;13.90;99.90;;;;;;5075146;28;20264;-56
2022/09/26 02:09:18;;;;;;;25.02;13.88;;;13.90;99.90;;;;;;5073737;28;20020;-56
2022/09/26 02:11:49;;;;;;;22.77;13.90;;;13.90;99.90;;;;;;5073728;28;20056;-56
2022/09/26 02:14:28;;;;;;;21.17;14.02;;;13.90;99.90;;;;;;5073638;28;20125;-56
2022/09/26 02:16:59;;;;;;;23.88;13.30;;;13.80;99.90;;;;;;5073669;28;20418;-55
2022/09/26 02:19:29;;;;;;;23.65;15.25;;;13.80;99.90;;;;;;5073674;28;20142;-56
2022/09/26 02:21:57;;;;;;;27.47;15.20;;;13.90;99.90;;;;;;5074530;28;20541;-56
2022/09/26 02:24:24;;;;;;;30.88;14.80;;;13.80;99.90;;;;;;5073612;28;20056;-56
2022/09/26 02:26:51;;;;;;;24.00;15.02;;;13.80;99.90;;;;;;5073400;28;20493;-56
2022/09/26 02:29:19;;;;;;;19.80;13.30;;;13.90;99.90;;;;;;5073529;28;20024;-55
2022/09/26 02:32:01;;;;;;;29.52;16.70;;;13.90;99.90;;;;;;5073531;28;20029;-56
2022/09/26 02:34:29;;;;;;;35.80;17.00;;;13.90;99.90;;;;;;5073475;28;20037;-56
2022/09/26 02:36:59;;;;;;;32.67;17.15;;;13.90;99.90;;;;;;5073133;28;20032;-56
2022/09/26 02:39:29;;;;;;;35.20;17.20;;;13.80;99.90;;;;;;5073439;28;20040;-55
2022/09/26 02:42:20;;;;;;;36.63;19.88;;;13.80;99.90;;;;;;5058838;28;20086;-56
2022/09/26 02:45:25;;;;;;;40.97;20.33;;;13.90;99.90;;;;;;5073322;28;20059;-56
2022/09/26 02:48:01;;;;;;;44.50;20.00;;;13.70;99.90;;;;;;5073236;28;20052;-56
2022/09/26 02:50:42;;;;;;;42.88;19.98;;;13.70;99.90;;;;;;5073263;28;20025;-56
2022/09/26 02:53:27;;;;;;;61.30;21.88;;;13.70;99.90;;;;;;5073151;28;20032;-56
2022/09/26 02:56:13;;;;;;;72.57;25.00;;;13.60;99.90;;;;;;5073098;28;20455;-56
2022/09/26 02:59:05;;;;;;;64.07;24.90;;;13.60;99.90;;;;;;5073218;28;20082;-56
2022/09/26 03:02:01;;;;;;;65.97;23.08;;;13.60;99.90;;;;;;5073091;28;20038;-56
2022/09/26 03:04:36;;;;;;;62.55;24.27;;;13.60;99.90;;;;;;5073066;28;20056;-56
2022/09/26 03:07:08;;;;;;;56.83;23.88;;;13.70;99.90;;;;;;5073115;28;20029;-56
2022/09/26 03:09:36;;;;;;;67.10;24.85;;;13.60;99.90;;;;;;5073085;28;20043;-55
2022/09/26 03:12:05;;;;;;;69.25;22.85;;;13.70;99.90;;;;;;5072877;28;20056;-56
2022/09/26 03:14:33;;;;;;;60.45;23.25;;;13.70;99.90;;;;;;5073086;28;20075;-56
2022/09/26 03:17:01;;;;;;;74.65;25.15;;;13.80;99.90;;;;;;5072963;28;20033;-56
2022/09/26 03:19:30;;;;;;;59.97;22.95;;;13.80;99.90;;;;;;5073077;28;20025;-56
2022/09/26 03:21:58;;;;;;;69.18;26.33;;;13.80;99.90;;;;;;5072820;28;20035;-56
2022/09/26 03:24:25;;;;;;;65.88;24.65;;;13.70;99.90;;;;;;5072959;28;20385;-56
2022/09/26 03:26:56;;;;;;;86.30;26.13;;;13.70;99.90;;;;;;5072960;28;20028;-56
2022/09/26 03:29:24;;;;;;;64.05;24.08;;;13.70;99.90;;;;;;5072894;28;20028;-56
2022/09/26 03:31:50;;;;;;;63.10;24.15;;;13.70;99.90;;;;;;5072934;28;20465;-56
2022/09/26 03:34:17;;;;;;;67.65;26.20;;;13.70;99.90;;;;;;5072936;28;20029;-56
2022/09/26 03:36:44;;;;;;;51.13;22.83;;;13.70;99.90;;;;;;5072839;28;20033;-56
2022/09/26 03:39:12;;;;;;;48.85;21.50;;;13.60;99.90;;;;;;5072763;28;20640;-56
2022/09/26 03:41:57;;;;;;;44.08;20.73;;;13.70;99.90;;;;;;5072589;28;20036;-56
2022/09/26 03:44:27;;;;;;;49.05;21.73;;;13.60;99.90;;;;;;5072783;28;20135;-56
2022/09/26 03:47:03;;;;;;;51.00;21.45;;;13.60;99.90;;;;;;5074312;28;20028;-56
2022/09/26 03:49:30;;;;;;;47.30;21.35;;;13.60;99.90;;;;;;5076162;28;20106;-56
2022/09/26 03:51:56;;;;;;;45.47;19.25;;;13.60;99.90;;;;;;5076444;28;20044;-56
2022/09/26 03:54:23;;;;;;;55.22;24.17;;;13.60;99.90;;;;;;5076442;28;20401;-56
2022/09/26 03:56:49;;;;;;;67.95;31.27;;;13.60;99.90;;;;;;5076452;28;20035;-56
2022/09/26 03:59:16;;;;;;;59.53;24.77;;;13.50;99.90;;;;;;5077656;28;20382;-55
2022/09/26 04:01:43;;;;;;;45.22;22.15;;;13.50;99.90;;;;;;5077482;28;20032;-56
2022/09/26 04:04:14;;;;;;;40.40;19.95;;;13.50;99.90;;;;;;5076247;28;20028;-56
2022/09/26 04:06:43;;;;;;;49.80;20.73;;;13.60;99.90;;;;;;5076125;28;20024;-56
2022/09/26 04:09:10;;;;;;;39.10;19.83;;;13.50;99.90;;;;;;5076188;28;20056;-56
2022/09/26 04:11:38;;;;;;;31.40;18.08;;;13.40;99.90;;;;;;5076016;28;20052;-56
2022/09/26 04:14:05;;;;;;;26.55;15.40;;;13.50;99.90;;;;;;5076046;28;20058;-56
2022/09/26 04:16:34;;;;;;;26.55;15.00;;;13.30;99.90;;;;;;5075960;28;20494;-56
2022/09/26 04:19:25;;;;;;;28.27;15.60;;;13.40;99.90;;;;;;5075792;28;20028;-56
2022/09/26 04:21:51;;;;;;;45.30;23.73;;;13.40;99.90;;;;;;5075739;28;20033;-56
2022/09/26 04:24:20;;;;;;;47.75;23.17;;;13.40;99.90;;;;;;5075762;28;20070;-56
2022/09/26 04:26:46;;;;;;;38.25;20.85;;;13.40;99.90;;;;;;5075766;28;20040;-56
2022/09/26 04:29:12;;;;;;;40.03;20.90;;;13.40;99.90;;;;;;5075713;28;20490;-56
2022/09/26 04:32:07;;;;;;;51.50;25.23;;;13.40;99.90;;;;;;5075746;28;20024;-56
2022/09/26 04:34:44;;;;;;;60.38;28.08;;;13.40;99.90;;;;;;5075688;28;20328;-56
2022/09/26 04:37:10;;;;;;;55.47;26.02;;;13.40;99.90;;;;;;5075456;28;20035;-56
2022/09/26 04:39:36;;;;;;;52.25;26.33;;;13.40;99.90;;;;;;5075418;28;20042;-56
2022/09/26 04:42:03;;;;;;;51.33;27.27;;;13.40;99.90;;;;;;5075395;28;20037;-56
2022/09/26 04:44:29;;;;;;;62.08;29.50;;;13.40;99.90;;;;;;5076460;28;20395;-56
2022/09/26 04:46:55;;;;;;;81.05;35.72;;;13.30;99.90;;;;;;5075307;28;20032;-56
2022/09/26 04:49:31;;;;;;;117.55;46.80;;;13.40;99.90;;;;;;5075312;28;20029;-56
2022/09/26 04:51:57;;;;;;;58.50;29.20;;;13.40;99.90;;;;;;5075121;28;20115;-56
2022/09/26 04:54:23;;;;;;;53.95;26.55;;;13.50;99.90;;;;;;5075256;28;20033;-56
2022/09/26 04:56:49;;;;;;;54.40;24.90;;;13.50;99.90;;;;;;5075192;28;20033;-56
2022/09/26 04:59:15;;;;;;;50.17;25.85;;;13.60;99.90;;;;;;5076381;28;20028;-56
2022/09/26 05:01:53;;;;;;;58.05;28.20;;;13.50;99.90;;;;;;5075042;28;20044;-56
2022/09/26 05:04:25;;;;;;;57.70;27.75;;;13.50;99.90;;;;;;5075039;28;20020;-56
2022/09/26 05:06:54;;;;;;;53.70;24.80;;;13.60;99.90;;;;;;5075025;28;20020;-56
2022/09/26 05:09:25;;;;;;;48.20;28.25;;;13.70;99.90;;;;;;5074927;28;20478;-56
2022/09/26 05:12:04;;;;;;;106.32;51.15;;;13.70;99.90;;;;;;5074811;28;20402;-56
2022/09/26 05:14:32;;;;;;;79.55;38.38;;;13.70;99.90;;;;;;5070895;28;22033;-56
2022/09/26 05:16:58;;;;;;;69.32;32.78;;;13.90;99.90;;;;;;5074988;28;20078;-55
2022/09/26 05:19:25;;;;;;;67.55;33.25;;;13.90;99.90;;;;;;5075317;28;20543;-56
2022/09/26 05:22:14;;;;;;;52.05;29.00;;;14.00;99.90;;;;;;5076327;28;20028;-56
2022/09/26 05:27:24;;;;;;;58.63;28.58;;;14.20;99.90;;;;;;5075057;28;20064;-56
2022/09/26 05:29:54;;;;;;;58.40;28.73;;;14.30;99.90;;;;;;5074918;28;20470;-56
2022/09/26 05:32:21;;;;;;;55.05;28.58;;;14.40;99.90;;;;;;5074893;28;20032;-56
2022/09/26 05:34:49;;;;;;;66.15;31.65;;;14.50;99.90;;;;;;5075006;28;20029;-56
2022/09/26 05:37:18;;;;;;;66.18;31.25;;;14.70;99.90;;;;;;5070367;28;20029;-56
2022/09/26 05:42:30;;;;;;;36.25;19.48;;;15.00;99.90;;;;;;5072679;28;20047;-56
2022/09/26 05:44:56;;;;;;;37.85;19.02;;;15.00;99.90;;;;;;5073503;28;20382;-56
2022/09/26 05:47:25;;;;;;;46.50;23.75;;;15.00;99.90;;;;;;5054504;28;20071;-56
2022/09/26 05:49:52;;;;;;;34.80;21.35;;;15.20;99.90;;;;;;5063236;28;20458;-56
2022/09/26 05:52:21;;;;;;;41.72;21.00;;;15.20;99.90;;;;;;5072901;28;20048;-56
2022/09/26 05:54:52;;;;;;;42.63;20.92;;;15.30;99.90;;;;;;5072999;28;20032;-56
2022/09/26 05:57:37;;;;;;;38.75;18.95;;;15.30;99.90;;;;;;5073624;28;20081;-56
2022/09/26 06:00:04;;;;;;;43.95;20.98;;;15.30;99.90;;;;;;5070215;28;20024;-56
2022/09/26 06:02:45;;;;;;;41.65;21.45;;;15.40;99.90;;;;;;5061648;28;20059;-56
2022/09/26 06:05:24;;;;;;;43.83;21.80;;;15.50;99.90;;;;;;5062605;28;20025;-56
2022/09/26 06:08:10;;;;;;;41.53;22.58;;;15.60;99.90;;;;;;5066667;28;20024;-56
2022/09/26 06:11:02;;;;;;;42.03;20.85;;;15.70;99.90;;;;;;5070392;28;20039;-56
2022/09/26 06:13:29;;;;;;;35.88;19.50;;;15.70;99.90;;;;;;5073565;28;20137;-56
2022/09/26 06:16:00;;;;;;;53.25;22.30;;;15.70;99.90;;;;;;5073036;28;20047;-56
2022/09/26 06:18:26;;;;;;;46.83;22.13;;;15.80;99.90;;;;;;5073271;28;20032;-56
2022/09/26 06:20:52;;;;;;;42.45;21.50;;;15.70;99.90;;;;;;5067902;28;20033;-56
2022/09/26 06:23:18;;;;;;;47.30;20.92;;;15.90;99.90;;;;;;5059835;28;20032;-56
2022/09/26 06:25:45;;;;;;;47.28;22.38;;;16.20;99.90;;;;;;5064114;28;20084;-56
2022/09/26 06:28:11;;;;;;;41.20;21.45;;;16.30;99.90;;;;;;5055875;28;20551;-56
2022/09/26 06:30:38;;;;;;;46.13;22.48;;;16.60;99.90;;;;;;5062109;28;20051;-56
2022/09/26 06:33:12;;;;;;;40.75;19.60;;;16.80;99.90;;;;;;5072780;28;20486;-56
2022/09/26 06:36:03;;;;;;;43.92;21.67;;;16.90;99.90;;;;;;5072890;28;20028;-56
2022/09/26 06:38:35;;;;;;;47.00;21.90;;;17.20;99.90;;;;;;5073281;28;20032;-56
2022/09/26 06:41:03;;;;;;;35.10;19.75;;;17.20;99.90;;;;;;5072980;28;20394;-56
2022/09/26 06:43:30;;;;;;;41.53;18.73;;;17.20;99.90;;;;;;5073188;28;20024;-56
2022/09/26 06:46:10;;;;;;;35.55;19.67;;;17.00;99.90;;;;;;5073980;28;20024;-56
2022/09/26 06:48:46;;;;;;;38.72;18.95;;;17.10;99.90;;;;;;5074746;28;20119;-56
2022/09/26 06:51:19;;;;;;;51.38;19.70;;;17.20;99.90;;;;;;5073579;28;20028;-56
2022/09/26 06:53:46;;;;;;;39.60;17.40;;;17.20;99.90;;;;;;5082969;28;20062;-56
2022/09/26 06:56:17;;;;;;;;;;;17.30;99.90;;;;;;5094373;28;20036;-56
2022/09/26 06:58:43;;;;;;;59.38;21.42;;;17.40;99.90;;;;;;5095236;28;19995;-56
2022/09/26 07:01:09;;;;;;;69.53;20.60;;;17.40;99.90;;;;;;5093535;28;20042;-56
2022/09/26 07:03:48;;;;;;;86.63;35.60;;;17.40;99.90;;;;;;5093355;28;20107;-56
2022/09/26 07:06:32;;;;;;;111.28;42.70;;;17.40;99.90;;;;;;5093775;28;20537;-56
2022/09/26 07:08:59;;;;;;;120.13;45.78;;;17.40;99.90;;;;;;5092920;28;20036;-56
2022/09/26 07:11:46;;;;;;;151.77;62.33;;;17.60;99.90;;;;;;5093616;28;20382;-56
2022/09/26 07:14:16;;;;;;;142.98;57.22;;;17.70;99.90;;;;;;5074643;28;20040;-56
2022/09/26 07:16:50;;;;;;;124.07;48.38;;;17.80;99.90;;;;;;5066979;28;20073;-56
2022/09/26 07:19:43;;;;;;;106.22;40.95;;;18.00;99.90;;;;;;5062027;28;20510;-56
2022/09/26 07:22:29;;;;;;;110.72;46.30;;;18.20;99.90;;;;;;5066191;28;20035;-56
2022/09/26 07:24:54;;;;;;;127.07;56.08;;;18.50;99.90;;;;;;5076733;28;20025;-56
2022/09/26 07:27:20;;;;;;;99.13;42.17;;;18.70;99.90;;;;;;5076640;28;20470;-56
2022/09/26 07:29:47;;;;;;;70.35;32.15;;;19.10;99.90;;;;;;5077939;28;20035;-56
2022/09/26 07:32:16;;;;;;;56.13;22.77;;;19.50;99.90;;;;;;5077055;28;20032;-56
2022/09/26 07:34:58;;;;;;;64.20;19.75;;;19.90;99.90;;;;;;5077425;28;20068;-56
2022/09/26 07:37:25;;;;;;;67.35;22.40;;;20.10;99.90;;;;;;5077215;28;20028;-56
2022/09/26 07:39:54;;;;;;;80.53;21.65;;;20.50;99.90;;;;;;5077057;28;20029;-56
2022/09/26 07:42:20;;;;;;;61.83;19.30;;;20.70;99.90;;;;;;5076874;28;20056;-56
2022/09/26 07:44:47;;;;;;;25.13;11.52;;;20.80;99.90;;;;;;5077003;28;20060;-56
2022/09/26 07:50:15;;;;;;;42.65;15.65;;;20.50;99.90;;;;;;5076900;28;20682;-56
2022/09/26 07:53:02;;;;;;;50.08;22.77;;;20.60;99.90;;;;;;5076659;28;20366;-56
2022/09/26 07:55:28;;;;;;;48.80;24.08;;;20.60;99.90;;;;;;5077160;28;20065;-56
2022/09/26 07:58:24;;;;;;;45.08;24.15;;;20.60;99.90;;;;;;5041590;28;20064;-56
2022/09/26 08:01:26;;;;;;;55.72;23.77;;;20.70;99.90;;;;;;5050877;28;20037;-56
2022/09/26 08:04:18;;;;;;;46.55;22.70;;;21.10;99.90;;;;;;5077901;28;20036;-56
2022/09/26 08:06:44;;;;;;;40.47;22.45;;;21.70;99.90;;;;;;5076616;28;20021;-56
2022/09/26 08:09:10;;;;;;;42.35;22.52;;;21.60;99.90;;;;;;5076654;28;20035;-56
2022/09/26 08:11:55;;;;;;;39.42;21.30;;;21.50;99.90;;;;;;5077994;28;20072;-56
2022/09/26 08:14:53;;;;;;;46.08;21.48;;;21.70;99.90;;;;;;5047276;28;20041;-56
2022/09/26 08:17:38;;;;;;;34.78;18.95;;;21.90;99.90;;;;;;5065152;28;20035;-56
2022/09/26 08:20:04;;;;;;;48.10;20.38;;;22.00;99.90;;;;;;5067937;28;20036;-56
2022/09/26 08:22:30;;;;;;;43.53;21.48;;;22.20;99.90;;;;;;5076243;28;20036;-56
2022/09/26 08:24:59;;;;;;;45.70;19.35;;;22.20;99.90;;;;;;5076096;28;20029;-57
2022/09/26 08:27:42;;;;;;;41.22;20.33;;;22.30;99.90;;;;;;5072400;28;20033;-56
2022/09/26 08:30:09;;;;;;;38.77;20.33;;;22.20;99.90;;;;;;5062217;28;20676;-56
2022/09/26 08:32:36;;;;;;;39.40;18.40;;;22.60;99.90;;;;;;5060487;28;20056;-57
2022/09/26 08:35:03;;;;;;;33.92;18.17;;;22.70;99.90;;;;;;5055682;28;20032;-57
2022/09/26 08:37:31;;;;;;;43.20;20.17;;;23.10;99.80;;;;;;5057470;28;20412;-57
2022/09/26 08:40:16;;;;;;;49.17;18.58;;;23.40;99.10;;;;;;5060530;28;20496;-56
2022/09/26 08:43:14;;;;;;;34.92;16.85;;;23.60;98.90;;;;;;5055549;28;20603;-57
2022/09/26 08:50:10;;;;;;;33.35;16.63;;;23.60;97.60;;;;;;5074865;28;20452;-57
2022/09/26 08:52:55;;;;;;;37.50;16.02;;;23.60;99.20;;;;;;5047452;28;20040;-57
2022/09/26 08:55:29;;;;;;;32.45;15.00;;;23.90;97.60;;;;;;5075058;28;20616;-57
2022/09/26 08:58:00;;;;;;;31.05;14.40;;;24.20;95.40;;;;;;5075154;28;20036;-57
2022/09/26 09:00:30;;;;;;;19.33;12.32;;;24.40;94.90;;;;;;5075146;28;20375;-57
2022/09/26 09:03:18;;;;;;;36.90;15.70;;;24.80;95.20;;;;;;5074704;28;20109;-57
2022/09/26 09:05:52;;;;;;;48.90;20.88;;;24.80;93.50;;;;;;5074802;28;20039;-57
2022/09/26 09:08:23;;;;;;;34.25;15.23;;;24.90;93.90;;;;;;5074911;28;20058;-57
2022/09/26 09:11:25;;;;;;;;;;;24.80;92.40;;;;;;5021390;28;20045;-57
2022/09/26 09:14:00;;;;;;;34.60;13.73;;;24.30;93.70;;;;;;5076100;28;19908;-57
2022/09/26 09:16:52;;;;;;;47.70;15.85;;;24.40;93.50;;;;;;5075581;28;20126;-57
2022/09/26 09:19:58;;;;;;;47.65;14.77;;;24.30;95.40;;;;;;5067344;28;20470;-57
2022/09/26 09:23:01;;;;;;;45.47;16.15;;;24.10;93.80;;;;;;5074457;28;20083;-57
2022/09/26 09:25:34;;;;;;;44.67;14.98;;;24.10;95.90;;;;;;5074137;28;20035;-57
2022/09/26 09:28:17;;;;;;;;;;;24.00;95.50;;;;;;5074925;28;20482;-57
2022/09/26 09:30:54;;;;;;;33.95;17.20;;;23.90;96.70;;;;;;5074232;28;19915;-57
2022/09/26 09:33:52;;;;;;;47.55;21.80;;;23.90;95.80;;;;;;5059096;28;20032;-57
2022/09/26 09:36:43;;;;;;;34.20;18.40;;;23.70;97.00;;;;;;5075254;28;20322;-57
2022/09/26 09:39:26;;;;;;;50.33;21.23;;;23.60;97.50;;;;;;5069033;28;20442;-57
2022/09/26 09:42:26;;;;;;;35.42;18.65;;;23.50;98.70;;;;;;5055143;28;20055;-57
2022/09/26 09:45:05;;;;;;;43.88;22.23;;;23.30;98.10;;;;;;5058018;28;20466;-57
2022/09/26 09:47:38;;;;;;;51.20;24.88;;;23.40;99.60;;;;;;5062409;28;20441;-57
2022/09/26 09:50:18;;;;;;;50.70;25.15;;;23.30;99.90;;;;;;5054193;28;20032;-57
2022/09/26 09:53:07;;;;;;;44.58;25.48;;;23.40;99.90;;;;;;5053830;28;20055;-57
2022/09/26 09:56:44;;;;;;;47.45;23.88;;;23.60;99.90;;;;;;5053751;28;20635;-57
2022/09/26 09:59:44;;;;;;;41.05;23.05;;;23.90;99.20;;;;;;4994393;28;20063;-57
2022/09/26 10:02:23;;;;;;;32.03;15.65;;;24.20;99.00;;;;;;5053292;28;20037;-57
2022/09/26 10:05:05;;;;;;;37.03;16.17;;;24.90;94.20;;;;;;5053611;28;20036;-57
2022/09/26 10:07:31;;;;;;;24.17;10.98;;;25.40;94.20;;;;;;5053949;28;20079;-57
2022/09/26 10:11:04;;;;;;;14.35;8.88;;;26.00;86.20;;;;;;5062454;28;20474;-57
2022/09/26 10:13:55;;;;;;;19.15;8.10;;;26.10;77.20;;;;;;5072548;28;20051;-57
2022/09/26 10:17:08;;;;;;;16.73;6.53;;;26.10;75.60;;;;;;5054418;28;20434;-57
2022/09/26 10:19:42;;;;;;;17.63;8.43;;;26.10;78.20;;;;;;5070084;28;20040;-57
2022/09/26 10:22:23;;;;;;;21.65;8.23;;;25.90;79.10;;;;;;5053286;28;20413;-57
2022/09/26 10:24:53;;;;;;;20.02;8.20;;;25.70;77.90;;;;;;5055986;28;20498;-57
2022/09/26 10:27:34;;;;;;;15.63;7.75;;;25.70;80.70;;;;;;5070489;28;20036;-57
2022/09/26 10:30:20;;;;;;;10.90;6.28;;;25.50;87.30;;;;;;5056335;28;20029;-57
2022/09/26 10:32:57;;;;;;;8.18;5.03;;;25.10;86.20;;;;;;5065842;28;20024;-57
2022/09/26 10:35:44;;;;;;;12.88;5.47;;;24.60;85.10;;;;;;5060480;28;20032;-57
2022/09/26 10:38:21;;;;;;;9.30;4.30;;;24.40;93.60;;;;;;5069810;28;20051;-57
2022/09/26 10:40:58;;;;;;;11.43;5.53;;;23.90;99.00;;;;;;5058554;28;20041;-57
2022/09/26 10:43:28;;;;;;;7.78;4.78;;;23.50;99.90;;;;;;5062072;28;20359;-57
2022/09/26 10:46:08;;;;;;;11.32;5.20;;;23.40;99.90;;;;;;5086436;28;20159;-57
2022/09/26 10:48:47;;;;;;;9.93;5.30;;;23.40;99.90;;;;;;5054443;28;20033;-57
2022/09/26 10:51:44;;;;;;;6.70;4.97;;;23.30;99.90;;;;;;5045846;28;20432;-57
2022/09/26 10:54:15;;;;;;;12.43;4.90;;;23.00;99.90;;;;;;5052801;28;20112;-57
2022/09/26 10:56:46;;;;;;;10.07;4.78;;;22.90;99.90;;;;;;5052979;28;20097;-57
2022/09/26 10:59:16;;;;;;;8.25;4.38;;;22.80;99.90;;;;;;5052881;28;20025;-57
2022/09/26 11:01:54;;;;;;;19.58;5.72;;;22.80;99.90;;;;;;5052540;28;20033;-57
2022/09/26 11:07:41;;;;;;;18.65;6.22;;;23.00;99.90;;;;;;5053643;28;20090;-57
2022/09/26 11:10:32;;;;;;;10.70;5.28;;;23.20;99.90;;;;;;5050804;28;20029;-57
2022/09/26 11:13:24;;;;;;;13.85;6.30;;;23.40;99.90;;;;;;5049002;28;20044;-57
2022/09/26 11:16:00;;;;;;;8.27;4.25;;;23.70;99.90;;;;;;5065861;28;20036;-57
2022/09/26 11:18:35;;;;;;;;;;;23.80;94.90;;;;;;5072852;28;20067;-57
2022/09/26 11:21:27;;;;;;;9.48;4.68;;;24.00;94.30;;;;;;5074728;28;19915;-57
2022/09/26 11:24:01;;;;;;;5.97;3.38;;;23.90;98.00;;;;;;5073440;28;20365;-57
2022/09/26 11:26:48;;;;;;;7.13;3.50;;;23.80;97.00;;;;;;5072522;28;20077;-57
2022/09/26 11:29:40;;;;;;;6.70;4.10;;;23.80;94.90;;;;;;5072554;28;20032;-56
2022/09/26 11:32:16;;;;;;;15.70;4.95;;;23.80;99.70;;;;;;5072556;28;20028;-56
2022/09/26 11:35:02;;;;;;;15.15;6.55;;;23.70;99.90;;;;;;5074256;28;20047;-56
2022/09/26 11:37:35;;;;;;;22.02;6.15;;;23.80;97.10;;;;;;5072638;28;20032;-56
2022/09/26 11:40:36;;;;;;;21.33;5.97;;;23.80;97.20;;;;;;5072478;28;20060;-56
2022/09/26 11:43:08;;;;;;;11.68;4.95;;;23.70;95.30;;;;;;5072399;28;20039;-56
2022/09/26 11:45:36;;;;;;;10.63;4.22;;;23.80;94.00;;;;;;5072401;28;20031;-56
2022/09/26 11:48:33;;;;;;;12.63;4.47;;;23.80;99.90;;;;;;5073900;28;20114;-56
2022/09/26 11:51:39;;;;;;;13.35;6.30;;;23.80;99.90;;;;;;5073743;28;20071;-56
2022/09/26 11:54:18;;;;;;;14.77;6.60;;;23.90;99.60;;;;;;5072123;28;20040;-56
2022/09/26 11:57:12;;;;;;;15.55;8.00;;;23.90;99.20;;;;;;5073923;28;20056;-56
2022/09/26 11:59:47;;;;;;;19.05;8.93;;;24.10;97.90;;;;;;5073447;28;20036;-56
2022/09/26 12:02:22;;;;;;;22.00;9.07;;;24.00;98.10;;;;;;5073740;28;20493;-56
2022/09/26 12:05:15;;;;;;;12.98;7.15;;;24.20;99.90;;;;;;5073496;28;20093;-56
2022/09/26 12:08:03;;;;;;;14.30;7.45;;;24.40;98.40;;;;;;5073324;28;20036;-56
2022/09/26 12:10:55;;;;;;;14.63;6.80;;;24.50;99.90;;;;;;5076855;28;20023;-56
2022/09/26 12:13:36;;;;;;;16.90;8.15;;;24.50;98.40;;;;;;5077002;28;20041;-56
2022/09/26 12:16:34;;;;;;;27.95;8.75;;;24.50;98.10;;;;;;5076890;28;20025;-56
2022/09/26 12:19:32;;;;;;;19.38;8.60;;;24.50;99.10;;;;;;5072670;28;20045;-56
2022/09/26 12:22:27;;;;;;;30.60;9.80;;;24.60;98.30;;;;;;5076552;28;20044;-56
2022/09/26 12:25:08;;;;;;;20.75;7.82;;;24.80;98.80;;;;;;5076296;28;20123;-56
2022/09/26 12:27:46;;;;;;;12.68;7.55;;;24.50;99.10;;;;;;5075663;28;20052;-56
2022/09/26 12:30:17;;;;;;;23.20;9.65;;;24.50;99.90;;;;;;5076449;28;20056;-56
2022/09/26 12:33:19;;;;;;;26.60;9.63;;;24.20;98.30;;;;;;5076756;28;20293;-56
2022/09/26 12:35:54;;;;;;;14.25;7.93;;;24.20;98.70;;;;;;5075842;28;20028;-56
2022/09/26 12:38:58;;;;;;;21.05;8.52;;;24.10;99.90;;;;;;5076513;28;20527;-56
2022/09/26 12:41:37;;;;;;;19.00;9.55;;;24.00;99.10;;;;;;5077238;28;20028;-56
2022/09/26 12:44:21;;;;;;;20.33;10.75;;;23.70;99.90;;;;;;5076943;28;20028;-56
2022/09/26 12:47:18;;;;;;;36.85;17.15;;;23.60;99.90;;;;;;5077351;28;20032;-56
2022/09/26 12:49:47;;;;;;;37.50;20.90;;;23.70;99.90;;;;;;5076920;28;20520;-56
2022/09/26 12:52:20;;;;;;;21.08;11.60;;;23.80;99.90;;;;;;5076415;28;20086;-56
2022/09/26 12:55:08;;;;;;;19.50;8.32;;;23.80;99.90;;;;;;5076453;28;20532;-56
2022/09/26 12:57:40;;;;;;;20.70;9.05;;;24.00;99.90;;;;;;5076309;28;20052;-56
2022/09/26 13:00:21;;;;;;;20.27;10.25;;;23.70;99.90;;;;;;5076048;28;20032;-56
2022/09/26 13:03:08;;;;;;;20.05;8.40;;;23.80;99.90;;;;;;5076091;28;20499;-56
2022/09/26 13:05:46;;;;;;;21.73;8.68;;;23.80;99.90;;;;;;5096758;28;20025;-56
2022/09/26 13:08:20;;;;;;;24.35;7.32;;;23.90;99.90;;;;;;5097062;28;20028;-56
2022/09/26 13:10:52;;;;;;;20.67;7.30;;;23.80;99.70;;;;;;5097056;28;20016;-56
2022/09/26 13:13:23;;;;;;;11.23;5.85;;;23.70;99.90;;;;;;5097092;28;20048;-56
2022/09/26 13:16:06;;;;;;;9.55;4.88;;;23.50;99.90;;;;;;5096703;28;20113;-56
2022/09/26 13:18:48;;;;;;;20.83;6.53;;;23.40;99.90;;;;;;5096896;28;20024;-56
2022/09/26 13:21:46;;;;;;;9.50;5.05;;;23.40;99.90;;;;;;5096239;28;20129;-56
2022/09/26 13:24:22;;;;;;;8.43;5.10;;;23.30;99.90;;;;;;5096154;28;20054;-56
2022/09/26 13:27:09;;;;;;;8.48;5.07;;;23.20;99.90;;;;;;5096394;28;20032;-56
2022/09/26 13:29:36;;;;;;;15.52;6.45;;;23.20;99.90;;;;;;5096156;28;20777;-56
2022/09/26 13:32:08;;;;;;;10.23;6.25;;;23.10;99.90;;;;;;5096084;28;20040;-56
2022/09/26 13:34:46;;;;;;;11.98;7.65;;;23.20;99.90;;;;;;5096107;28;20032;-56
2022/09/26 13:37:55;;;;;;;7.82;5.18;;;23.10;99.90;;;;;;5096325;28;20323;-56